Time;durP1;ratioP1;P1;durP2;ratioP2;P2;SDS_P1;SDS_P2;PMS_P1;PMS_P2;Temp;Humidity;BMP_temperature;BMP_pressure;BME280_temperature;BME280_humidity;BME280_pressure;Samples;Min_cycle;Max_cycle;Signal;HPM_P1;HPM_P2
2021/04/27 00:01:50;;;;;;;1.55;1.40;;;22.30;46.40;;;;;;5146985;27;20012;-37
2021/04/27 00:04:16;;;;;;;1.35;1.25;;;22.30;46.40;;;;;;5147115;27;20495;-40
2021/04/27 00:06:42;;;;;;;1.50;1.40;;;22.30;46.60;;;;;;5149958;27;20029;-39
2021/04/27 00:09:07;;;;;;;1.27;1.15;;;22.30;46.60;;;;;;5149085;27;20031;-39
2021/04/27 00:11:33;;;;;;;1.17;1.08;;;22.30;46.60;;;;;;5147918;27;20015;-42
2021/04/27 00:13:59;;;;;;;1.73;1.58;;;22.30;46.60;;;;;;5147108;27;20035;-36
2021/04/27 00:16:24;;;;;;;1.10;1.00;;;22.30;46.50;;;;;;5146188;27;20039;-39
2021/04/27 00:18:50;;;;;;;2.05;1.48;;;22.40;46.40;;;;;;5149014;27;20076;-39
2021/04/27 00:21:15;;;;;;;1.40;1.30;;;22.40;46.30;;;;;;5146798;27;20031;-38
2021/04/27 00:23:41;;;;;;;1.33;1.23;;;22.40;46.30;;;;;;5141390;27;20050;-37
2021/04/27 00:26:07;;;;;;;1.27;1.17;;;22.40;46.30;;;;;;5142375;27;20031;-39
2021/04/27 00:28:32;;;;;;;1.48;1.38;;;22.40;46.40;;;;;;5139860;27;20532;-39
2021/04/27 00:30:58;;;;;;;1.30;1.20;;;22.30;46.40;;;;;;5139191;27;20035;-42
2021/04/27 00:33:23;;;;;;;1.90;1.30;;;22.30;46.40;;;;;;5140050;27;20034;-40
2021/04/27 00:35:49;;;;;;;1.30;1.20;;;22.30;46.50;;;;;;5139127;27;20205;-35
2021/04/27 00:38:14;;;;;;;1.70;1.60;;;22.30;46.50;;;;;;5128562;27;20034;-36
2021/04/27 00:40:40;;;;;;;1.17;1.08;;;22.30;46.40;;;;;;5133048;27;20568;-41
2021/04/27 00:43:05;;;;;;;1.25;1.15;;;22.30;46.40;;;;;;5133772;27;20031;-37
2021/04/27 00:45:31;;;;;;;1.08;1.05;;;22.30;46.40;;;;;;5133938;27;20500;-41
2021/04/27 00:47:57;;;;;;;1.08;1.08;;;22.30;46.40;;;;;;5132237;27;20015;-38
2021/04/27 00:50:31;;;;;;;2.08;1.50;;;22.30;46.40;;;;;;5132865;27;20492;-39
2021/04/27 00:52:57;;;;;;;2.05;1.23;;;22.20;46.40;;;;;;5131739;27;20477;-38
2021/04/27 00:55:23;;;;;;;1.73;1.38;;;22.30;46.40;;;;;;5132774;27;20039;-42
2021/04/27 00:57:49;;;;;;;1.00;1.00;;;22.30;46.40;;;;;;5135560;27;20031;-39
2021/04/27 01:00:17;;;;;;;1.45;1.08;;;22.30;46.30;;;;;;5132084;27;20052;-39
2021/04/27 01:02:42;;;;;;;1.50;1.40;;;22.30;46.30;;;;;;5130904;27;20030;-41
2021/04/27 01:05:10;;;;;;;1.88;1.23;;;22.30;46.30;;;;;;5130051;27;20023;-36
2021/04/27 01:07:37;;;;;;;1.48;1.38;;;22.30;46.30;;;;;;5131086;27;20093;-41
2021/04/27 01:10:08;;;;;;;1.33;1.23;;;22.30;46.20;;;;;;5116341;27;20449;-40
2021/04/27 01:12:44;;;;;;;1.25;1.17;;;22.30;46.20;;;;;;5129223;27;20034;-39
2021/04/27 01:15:16;;;;;;;1.30;1.20;;;22.30;46.30;;;;;;5131088;27;20024;-39
2021/04/27 01:17:42;;;;;;;1.25;1.08;;;22.30;46.30;;;;;;5127599;27;20392;-41
2021/04/27 01:20:36;;;;;;;1.10;1.00;;;22.20;46.30;;;;;;5130382;27;20029;-37
2021/04/27 01:23:23;;;;;;;1.00;0.90;;;22.20;46.30;;;;;;5131145;27;20027;-40
2021/04/27 01:26:08;;;;;;;1.25;1.15;;;22.30;46.30;;;;;;5117579;27;20377;-40
2021/04/27 01:28:33;;;;;;;1.30;1.20;;;22.30;46.30;;;;;;5115758;27;20119;-39
2021/04/27 01:30:59;;;;;;;1.08;1.00;;;22.20;46.40;;;;;;5112235;27;20471;-38
2021/04/27 01:33:28;;;;;;;1.13;1.02;;;22.20;46.50;;;;;;5131151;27;20384;-39
2021/04/27 01:35:55;;;;;;;1.55;1.20;;;22.20;46.50;;;;;;5131129;27;20043;-37
2021/04/27 01:38:20;;;;;;;1.05;0.90;;;22.20;46.50;;;;;;5130979;27;20095;-40
2021/04/27 01:40:47;;;;;;;1.30;1.20;;;22.10;46.50;;;;;;5131480;27;20110;-39
2021/04/27 01:43:13;;;;;;;1.10;1.10;;;22.20;46.50;;;;;;5131610;27;20110;-40
2021/04/27 01:45:38;;;;;;;1.30;1.15;;;22.20;46.50;;;;;;5132671;27;20563;-40
2021/04/27 01:48:04;;;;;;;1.20;1.10;;;22.20;46.40;;;;;;5129035;27;20028;-37
2021/04/27 01:50:30;;;;;;;1.20;1.10;;;22.20;46.40;;;;;;5130428;27;20087;-36
2021/04/27 01:52:56;;;;;;;1.25;1.15;;;22.20;46.50;;;;;;5130465;27;20396;-39
2021/04/27 01:55:21;;;;;;;1.40;0.90;;;22.20;46.50;;;;;;5131099;27;20420;-39
2021/04/27 01:57:47;;;;;;;1.23;1.13;;;22.20;46.30;;;;;;5132646;27;20023;-39
2021/04/27 02:00:14;;;;;;;1.77;1.08;;;22.10;46.60;;;;;;5127257;27;20042;-40
2021/04/27 02:02:42;;;;;;;1.02;1.00;;;22.10;46.50;;;;;;5124118;27;20503;-39
2021/04/27 02:05:08;;;;;;;1.10;1.00;;;22.20;46.50;;;;;;5131461;27;20072;-39
2021/04/27 02:07:34;;;;;;;0.80;0.80;;;22.20;46.50;;;;;;5129786;27;20024;-39
2021/04/27 02:10:08;;;;;;;1.10;1.00;;;22.10;46.50;;;;;;5134276;27;20084;-39
2021/04/27 02:12:34;;;;;;;1.10;1.00;;;22.10;46.50;;;;;;5130609;27;20019;-40
2021/04/27 02:15:00;;;;;;;1.25;1.08;;;22.10;46.50;;;;;;5113235;27;20023;-38
2021/04/27 02:17:31;;;;;;;1.25;1.15;;;22.10;47.20;;;;;;5129568;27;20034;-39
2021/04/27 02:19:57;;;;;;;1.30;1.20;;;22.10;46.60;;;;;;5130079;27;20031;-37
2021/04/27 02:22:24;;;;;;;0.93;0.93;;;22.10;46.50;;;;;;5130352;27;20035;-35
2021/04/27 02:24:49;;;;;;;1.10;1.00;;;22.10;46.50;;;;;;5115788;27;20027;-38
2021/04/27 02:27:15;;;;;;;1.20;1.10;;;22.10;46.50;;;;;;5121078;27;20034;-37
2021/04/27 02:29:41;;;;;;;1.15;1.00;;;22.10;46.50;;;;;;5124748;27;20024;-39
2021/04/27 02:32:06;;;;;;;1.50;1.20;;;22.00;46.50;;;;;;5129142;27;20035;-38
2021/04/27 02:34:32;;;;;;;1.02;0.90;;;22.00;47.20;;;;;;5129754;27;20068;-38
2021/04/27 02:36:57;;;;;;;1.20;1.10;;;22.00;47.20;;;;;;5114395;27;20493;-39
2021/04/27 02:39:23;;;;;;;1.00;0.98;;;22.00;46.60;;;;;;5130520;27;20088;-38
2021/04/27 02:41:49;;;;;;;1.30;1.20;;;22.10;46.50;;;;;;5129276;27;20022;-40
2021/04/27 02:44:15;;;;;;;1.23;1.13;;;22.00;46.50;;;;;;5128712;27;20585;-40
2021/04/27 02:46:42;;;;;;;1.38;1.15;;;22.00;46.50;;;;;;5128411;27;20019;-40
2021/04/27 02:49:08;;;;;;;1.20;1.10;;;22.10;46.50;;;;;;5131965;27;20068;-39
2021/04/27 02:51:33;;;;;;;0.98;0.90;;;22.10;46.50;;;;;;5131466;27;20019;-40
2021/04/27 02:53:59;;;;;;;1.00;0.95;;;22.10;46.40;;;;;;5130713;27;20532;-40
2021/04/27 02:56:25;;;;;;;0.93;0.93;;;22.10;46.40;;;;;;5128167;27;20038;-40
2021/04/27 02:58:51;;;;;;;1.65;1.08;;;22.00;46.40;;;;;;5128277;27;20393;-39
2021/04/27 03:01:16;;;;;;;1.10;1.00;;;22.00;46.40;;;;;;5130549;27;20034;-38
2021/04/27 03:03:42;;;;;;;0.90;0.90;;;22.10;47.10;;;;;;5132860;27;20045;-40
2021/04/27 03:06:07;;;;;;;1.08;0.88;;;22.00;46.40;;;;;;5130032;27;20031;-40
2021/04/27 03:08:33;;;;;;;1.00;0.90;;;22.10;46.40;;;;;;5127380;27;20051;-38
2021/04/27 03:10:59;;;;;;;0.95;0.85;;;22.00;46.40;;;;;;5129291;27;20515;-40
2021/04/27 03:13:24;;;;;;;1.00;1.00;;;22.10;46.40;;;;;;5130641;27;20106;-37
2021/04/27 03:15:50;;;;;;;0.88;0.88;;;22.10;46.40;;;;;;5131651;27;20499;-36
2021/04/27 03:18:15;;;;;;;1.10;1.00;;;22.00;46.40;;;;;;5129437;27;20023;-38
2021/04/27 03:20:43;;;;;;;1.20;1.10;;;22.00;46.50;;;;;;5127969;27;20030;-40
2021/04/27 03:23:10;;;;;;;1.80;1.13;;;22.00;46.40;;;;;;5129473;27;20112;-37
2021/04/27 03:25:35;;;;;;;1.02;1.00;;;22.00;46.40;;;;;;5129093;28;20027;-39
2021/04/27 03:28:01;;;;;;;1.40;1.10;;;21.90;46.60;;;;;;5133256;27;20024;-38
2021/04/27 03:30:27;;;;;;;1.55;1.10;;;21.90;46.60;;;;;;5128761;27;20027;-40
2021/04/27 03:32:52;;;;;;;0.85;0.85;;;21.90;46.70;;;;;;5129644;27;20023;-41
2021/04/27 03:35:18;;;;;;;1.05;0.95;;;21.90;46.70;;;;;;5129400;27;20084;-38
2021/04/27 03:37:43;;;;;;;0.77;0.77;;;22.00;46.60;;;;;;5130196;27;20047;-36
2021/04/27 03:40:10;;;;;;;0.93;0.90;;;22.00;47.10;;;;;;5131260;27;20023;-40
2021/04/27 03:42:35;;;;;;;1.27;1.10;;;22.00;47.10;;;;;;5130407;28;20474;-39
2021/04/27 03:45:01;;;;;;;1.60;0.77;;;21.90;46.60;;;;;;5128875;28;20047;-37
2021/04/27 03:47:27;;;;;;;1.02;0.70;;;21.90;47.20;;;;;;5128377;27;20159;-41
2021/04/27 03:49:52;;;;;;;1.20;1.10;;;21.90;46.60;;;;;;5129630;27;20092;-37
2021/04/27 03:52:18;;;;;;;1.20;1.10;;;21.90;46.50;;;;;;5131191;27;20051;-39
2021/04/27 03:54:43;;;;;;;1.33;0.90;;;22.00;46.60;;;;;;5130524;28;20028;-40
2021/04/27 03:57:09;;;;;;;1.17;1.00;;;21.90;46.50;;;;;;5128432;27;20031;-39
2021/04/27 03:59:35;;;;;;;1.00;1.00;;;22.00;47.20;;;;;;5128724;27;20102;-37
2021/04/27 04:02:00;;;;;;;1.02;0.95;;;22.00;46.50;;;;;;5123187;27;20489;-38
2021/04/27 04:04:26;;;;;;;1.27;1.00;;;21.90;46.80;;;;;;5125232;27;20169;-39
2021/04/27 04:06:51;;;;;;;1.20;1.10;;;21.80;46.70;;;;;;5125783;28;20072;-40
2021/04/27 04:09:17;;;;;;;1.05;1.00;;;21.80;46.80;;;;;;5126595;27;20027;-40
2021/04/27 04:11:43;;;;;;;1.02;1.00;;;21.90;46.70;;;;;;5124731;27;20400;-41
2021/04/27 04:14:08;;;;;;;1.17;0.95;;;21.90;46.70;;;;;;5122712;27;20079;-37
2021/04/27 04:16:34;;;;;;;0.90;0.90;;;21.90;46.70;;;;;;5128306;27;20039;-44
2021/04/27 04:18:59;;;;;;;0.80;0.80;;;21.90;46.60;;;;;;5128004;27;20446;-39
2021/04/27 04:21:25;;;;;;;2.17;0.95;;;21.90;47.50;;;;;;5124564;27;20103;-39
2021/04/27 04:23:52;;;;;;;2.15;0.82;;;21.90;48.80;;;;;;5127047;27;20027;-36
2021/04/27 04:26:18;;;;;;;1.00;0.70;;;21.90;50.60;;;;;;5133620;27;20079;-37
2021/04/27 04:28:44;;;;;;;1.33;0.75;;;21.90;50.80;;;;;;5128457;27;20072;-38
2021/04/27 04:31:09;;;;;;;0.73;0.73;;;21.90;50.50;;;;;;5124432;27;20396;-38
2021/04/27 04:33:35;;;;;;;1.10;0.90;;;21.80;50.50;;;;;;5132168;27;20061;-39
2021/04/27 04:36:00;;;;;;;1.30;1.08;;;21.80;50.70;;;;;;5124909;27;20058;-39
2021/04/27 04:38:26;;;;;;;1.45;0.90;;;21.90;50.30;;;;;;5124059;27;20035;-39
2021/04/27 04:40:52;;;;;;;0.95;0.90;;;21.90;50.60;;;;;;5130129;27;20076;-37
2021/04/27 04:43:17;;;;;;;0.90;0.90;;;21.90;50.30;;;;;;5130947;27;20102;-37
2021/04/27 04:45:43;;;;;;;2.05;1.10;;;21.90;50.30;;;;;;5128480;27;20165;-39
2021/04/27 04:48:09;;;;;;;1.83;1.10;;;21.90;50.30;;;;;;5132186;27;20171;-40
2021/04/27 04:50:35;;;;;;;0.98;0.90;;;21.90;50.30;;;;;;5131034;27;20023;-40
2021/04/27 04:53:00;;;;;;;0.85;0.85;;;21.90;50.20;;;;;;5131797;27;20043;-36
2021/04/27 04:55:26;;;;;;;1.00;0.88;;;21.90;50.20;;;;;;5127224;27;20054;-40
2021/04/27 04:57:51;;;;;;;1.02;0.93;;;21.90;50.10;;;;;;5131111;27;20434;-36
2021/04/27 05:00:18;;;;;;;0.93;0.82;;;21.90;50.10;;;;;;5131888;27;20412;-39
2021/04/27 05:02:44;;;;;;;1.52;0.80;;;21.90;50.10;;;;;;5130750;27;20034;-40
2021/04/27 05:05:10;;;;;;;1.05;0.95;;;21.90;50.00;;;;;;5132717;27;20024;-40
2021/04/27 05:07:43;;;;;;;1.08;0.98;;;21.80;50.00;;;;;;5126692;27;20023;-40
2021/04/27 05:10:10;;;;;;;1.08;0.95;;;21.90;50.10;;;;;;5123109;27;20019;-41
2021/04/27 05:12:36;;;;;;;1.23;1.02;;;21.80;50.00;;;;;;5128905;27;20029;-37
2021/04/27 05:15:01;;;;;;;0.95;0.85;;;21.80;50.00;;;;;;5129398;27;20466;-38
2021/04/27 05:17:27;;;;;;;0.85;0.80;;;21.80;50.10;;;;;;5122135;27;20080;-39
2021/04/27 05:19:52;;;;;;;1.25;1.10;;;21.80;49.80;;;;;;5121892;27;20027;-37
2021/04/27 05:22:18;;;;;;;0.85;0.70;;;21.80;49.80;;;;;;5121861;27;20031;-37
2021/04/27 05:24:44;;;;;;;0.90;0.90;;;21.80;49.90;;;;;;5123550;27;20019;-35
2021/04/27 05:27:09;;;;;;;0.98;0.90;;;21.70;49.50;;;;;;5119650;27;20085;-39
2021/04/27 05:29:35;;;;;;;2.10;0.93;;;21.70;49.50;;;;;;5118341;27;21272;-37
2021/04/27 05:32:01;;;;;;;0.80;0.80;;;21.80;49.50;;;;;;5116513;27;20042;-38
2021/04/27 05:34:26;;;;;;;1.38;0.98;;;21.70;49.70;;;;;;5116057;27;20031;-39
2021/04/27 05:36:52;;;;;;;1.00;0.90;;;21.70;49.60;;;;;;5117335;27;20055;-37
2021/04/27 05:39:18;;;;;;;1.45;1.23;;;21.70;49.70;;;;;;5120704;27;20080;-37
2021/04/27 05:41:44;;;;;;;1.10;1.00;;;21.80;50.40;;;;;;5104165;27;20032;-39
2021/04/27 05:44:09;;;;;;;2.33;1.00;;;21.80;49.80;;;;;;5121510;27;20110;-38
2021/04/27 05:46:35;;;;;;;1.10;1.05;;;21.80;49.70;;;;;;5122760;27;20027;-37
2021/04/27 05:49:01;;;;;;;0.60;0.60;;;21.70;49.70;;;;;;5120012;27;20686;-38
2021/04/27 05:51:26;;;;;;;0.77;0.77;;;21.70;49.70;;;;;;5122714;27;20035;-38
2021/04/27 05:53:52;;;;;;;1.27;1.00;;;21.80;49.80;;;;;;5117986;27;20379;-41
2021/04/27 05:56:17;;;;;;;1.48;1.20;;;21.70;50.10;;;;;;5117915;27;20109;-39
2021/04/27 05:58:44;;;;;;;1.80;0.90;;;21.60;49.60;;;;;;5126208;27;20019;-38
2021/04/27 06:01:10;;;;;;;1.10;0.80;;;21.70;49.80;;;;;;5119412;27;20545;-40
2021/04/27 06:03:36;;;;;;;0.90;0.90;;;21.70;50.10;;;;;;5122219;27;20031;-39
2021/04/27 06:06:02;;;;;;;1.30;0.98;;;21.70;49.60;;;;;;5122612;27;20035;-39
2021/04/27 06:08:29;;;;;;;1.15;1.00;;;21.70;49.70;;;;;;5116343;27;20492;-39
2021/04/27 06:10:54;;;;;;;2.25;1.08;;;21.70;49.70;;;;;;5124599;27;20027;-39
2021/04/27 06:13:20;;;;;;;0.93;0.88;;;21.70;49.50;;;;;;5117363;27;20026;-39
2021/04/27 06:15:45;;;;;;;0.77;0.77;;;21.70;49.70;;;;;;5117895;27;20532;-39
2021/04/27 06:18:11;;;;;;;1.20;1.10;;;21.70;49.60;;;;;;5114489;27;20027;-40
2021/04/27 06:20:37;;;;;;;1.70;0.93;;;21.70;49.30;;;;;;5113992;27;20031;-42
2021/04/27 06:23:02;;;;;;;1.02;0.93;;;21.70;49.10;;;;;;5117334;27;20720;-38
2021/04/27 06:25:28;;;;;;;1.20;1.00;;;21.70;49.50;;;;;;5114659;27;20015;-43
2021/04/27 06:27:53;;;;;;;1.17;1.08;;;21.70;49.70;;;;;;5124603;27;20079;-41
2021/04/27 06:30:20;;;;;;;0.93;0.93;;;21.70;49.70;;;;;;5122389;27;20031;-39
2021/04/27 06:32:47;;;;;;;1.23;1.00;;;21.60;49.60;;;;;;5115820;27;20020;-42
2021/04/27 06:35:13;;;;;;;0.68;0.68;;;21.70;49.70;;;;;;5119348;27;20504;-42
2021/04/27 06:37:39;;;;;;;0.90;0.90;;;21.70;49.60;;;;;;5115243;27;20046;-44
2021/04/27 06:40:05;;;;;;;2.53;0.88;;;21.70;49.70;;;;;;5115197;27;20026;-43
2021/04/27 06:42:30;;;;;;;1.05;1.05;;;21.70;49.70;;;;;;5118063;27;20460;-43
2021/04/27 06:44:56;;;;;;;0.90;0.90;;;21.70;49.60;;;;;;5116091;27;20047;-42
2021/04/27 06:47:21;;;;;;;2.20;0.82;;;21.70;49.60;;;;;;5114233;27;20039;-36
2021/04/27 06:49:47;;;;;;;1.15;1.00;;;21.70;49.40;;;;;;5103910;27;20092;-42
2021/04/27 06:52:13;;;;;;;2.72;0.90;;;21.70;49.50;;;;;;5115470;27;20098;-41
2021/04/27 06:54:38;;;;;;;1.27;1.15;;;21.70;49.40;;;;;;5116234;27;20089;-42
2021/04/27 06:57:04;;;;;;;2.13;1.40;;;21.80;49.40;;;;;;5115767;27;20475;-40
2021/04/27 06:59:31;;;;;;;1.20;0.98;;;21.70;49.00;;;;;;5112664;27;20500;-43
2021/04/27 07:02:00;;;;;;;1.08;0.98;;;21.70;49.20;;;;;;5110418;27;20571;-42
2021/04/27 07:04:26;;;;;;;0.95;0.95;;;21.80;49.40;;;;;;5108718;27;20035;-44
2021/04/27 07:06:52;;;;;;;1.23;1.13;;;21.70;49.20;;;;;;5112798;27;20039;-44
2021/04/27 07:09:18;;;;;;;1.80;1.70;;;21.70;49.20;;;;;;5112211;27;20046;-44
2021/04/27 07:11:44;;;;;;;1.50;1.40;;;21.70;48.20;;;;;;5119185;27;20019;-42
2021/04/27 07:14:09;;;;;;;1.70;1.33;;;21.70;49.00;;;;;;5119131;27;20118;-42
2021/04/27 07:16:35;;;;;;;1.65;1.55;;;21.70;48.50;;;;;;5117944;27;20028;-40
2021/04/27 07:19:01;;;;;;;4.40;1.92;;;21.80;48.50;;;;;;5117917;27;20068;-43
2021/04/27 07:21:26;;;;;;;1.45;1.35;;;21.80;48.30;;;;;;5111865;27;20031;-43
2021/04/27 07:23:52;;;;;;;2.58;2.00;;;21.80;48.70;;;;;;5116835;27;20392;-41
2021/04/27 07:26:17;;;;;;;3.92;1.80;;;21.80;50.40;;;;;;5104911;28;20027;-43
2021/04/27 07:28:43;;;;;;;4.68;2.00;;;21.80;51.10;;;;;;5102374;27;20055;-43
2021/04/27 07:31:08;;;;;;;3.05;1.55;;;21.80;51.20;;;;;;5099907;28;20047;-42
2021/04/27 07:33:34;;;;;;;3.10;2.28;;;21.90;51.70;;;;;;5101846;28;20024;-43
2021/04/27 07:36:00;;;;;;;3.55;2.30;;;21.90;50.30;;;;;;5100695;27;20093;-41
2021/04/27 07:38:25;;;;;;;2.55;2.22;;;22.00;50.00;;;;;;5100510;27;20027;-43
2021/04/27 07:40:51;;;;;;;4.85;3.20;;;22.00;50.80;;;;;;5100839;27;20417;-42
2021/04/27 07:43:16;;;;;;;3.50;3.20;;;21.90;49.40;;;;;;5098440;28;20030;-45
2021/04/27 07:45:42;;;;;;;3.03;2.40;;;22.00;49.00;;;;;;5100087;27;20084;-43
2021/04/27 07:48:08;;;;;;;2.92;2.72;;;21.90;49.60;;;;;;5104633;27;20031;-44
2021/04/27 07:50:34;;;;;;;2.60;2.40;;;21.90;49.80;;;;;;5109696;27;20518;-42
2021/04/27 07:53:00;;;;;;;3.35;2.78;;;21.90;50.20;;;;;;5108791;27;20495;-43
2021/04/27 07:55:25;;;;;;;2.60;2.33;;;21.90;49.40;;;;;;5109421;27;20031;-42
2021/04/27 07:57:51;;;;;;;4.70;2.80;;;21.90;49.70;;;;;;5101542;27;20080;-43
2021/04/27 08:00:18;;;;;;;3.30;3.00;;;21.90;49.80;;;;;;5100515;27;20072;-45
2021/04/27 08:02:43;;;;;;;2.95;2.60;;;21.90;49.30;;;;;;5105723;27;20027;-43
2021/04/27 08:05:10;;;;;;;3.83;2.67;;;22.10;48.90;;;;;;5106823;27;20042;-43
2021/04/27 08:07:36;;;;;;;3.58;2.88;;;22.10;48.60;;;;;;5109185;27;20039;-43
2021/04/27 08:10:02;;;;;;;2.83;2.63;;;22.10;49.20;;;;;;5107339;27;20035;-45
2021/04/27 08:12:28;;;;;;;3.10;2.80;;;22.20;48.30;;;;;;5104234;27;20039;-43
2021/04/27 08:14:53;;;;;;;3.27;2.97;;;22.20;48.20;;;;;;4748835;27;10000387;-43
2021/04/27 08:17:19;;;;;;;2.40;2.20;;;22.30;48.50;;;;;;5100659;27;20049;-41
2021/04/27 08:19:47;;;;;;;2.30;2.10;;;22.30;48.10;;;;;;5094456;27;20051;-46
2021/04/27 08:22:12;;;;;;;1.75;1.65;;;22.30;48.00;;;;;;5099294;27;20027;-47
2021/04/27 08:24:43;;;;;;;2.00;1.80;;;22.30;48.10;;;;;;5098505;27;20031;-46
2021/04/27 08:27:15;;;;;;;1.88;1.50;;;22.30;48.10;;;;;;5101419;27;20039;-49
2021/04/27 08:29:41;;;;;;;2.28;1.95;;;22.30;48.20;;;;;;5100133;27;20146;-50
2021/04/27 08:32:07;;;;;;;1.98;1.88;;;22.30;48.20;;;;;;5100293;27;20035;-47
2021/04/27 08:34:33;;;;;;;1.92;1.80;;;22.20;48.30;;;;;;5113375;27;20027;-45
2021/04/27 08:36:59;;;;;;;1.98;1.80;;;22.20;48.90;;;;;;5123005;27;20212;-42
2021/04/27 08:39:25;;;;;;;1.83;1.73;;;22.40;48.10;;;;;;5114402;27;20510;-53
2021/04/27 08:41:51;;;;;;;1.92;1.80;;;22.50;47.90;;;;;;5112144;27;20095;-46
2021/04/27 08:44:17;;;;;;;2.33;1.88;;;22.50;48.20;;;;;;5131330;27;20471;-49
2021/04/27 08:46:43;;;;;;;1.80;1.63;;;22.60;48.00;;;;;;5125267;27;20730;-51
2021/04/27 08:49:08;;;;;;;2.35;1.73;;;22.50;47.90;;;;;;5134480;27;20058;-44
2021/04/27 08:51:34;;;;;;;1.77;1.60;;;22.50;48.10;;;;;;5135998;27;20797;-40
2021/04/27 08:54:02;;;;;;;1.60;1.50;;;22.60;47.90;;;;;;5132302;27;20030;-53
2021/04/27 08:56:29;;;;;;;3.78;1.60;;;22.60;48.10;;;;;;5113818;27;20155;-48
2021/04/27 08:58:55;;;;;;;2.10;1.90;;;22.60;48.10;;;;;;5129480;27;20026;-45
2021/04/27 09:01:21;;;;;;;1.67;1.58;;;22.70;48.00;;;;;;5132544;27;20106;-47
2021/04/27 09:03:50;;;;;;;2.00;1.88;;;22.70;48.30;;;;;;5133681;27;20039;-40
2021/04/27 09:06:19;;;;;;;2.42;1.80;;;22.70;48.60;;;;;;5133392;27;20030;-49
2021/04/27 09:08:45;;;;;;;3.28;1.90;;;22.80;48.90;;;;;;5134946;27;20037;-49
2021/04/27 09:11:37;;;;;;;2.00;1.90;;;23.00;48.40;;;;;;5132522;27;20142;-46
2021/04/27 09:14:07;;;;;;;1.73;1.63;;;23.10;47.90;;;;;;5132735;27;21300;-43
2021/04/27 09:16:33;;;;;;;2.55;1.73;;;23.20;47.50;;;;;;5112374;27;20504;-42
2021/04/27 09:18:59;;;;;;;2.15;1.65;;;23.30;47.50;;;;;;5116102;27;20041;-42
2021/04/27 09:21:35;;;;;;;2.13;1.92;;;23.30;47.30;;;;;;5112345;27;20042;-42
2021/04/27 09:24:14;;;;;;;3.47;1.60;;;23.40;47.20;;;;;;5132025;27;20027;-44
2021/04/27 09:26:41;;;;;;;1.70;1.60;;;23.40;47.00;;;;;;5114442;27;20107;-41
2021/04/27 09:29:07;;;;;;;1.38;1.27;;;23.40;47.10;;;;;;5127467;27;20043;-42
2021/04/27 09:31:34;;;;;;;1.70;1.60;;;23.40;47.10;;;;;;5109842;27;20034;-42
2021/04/27 09:34:30;;;;;;;1.60;1.50;;;23.50;46.80;;;;;;5133168;27;20122;-38
2021/04/27 09:37:00;;;;;;;1.58;1.48;;;23.50;46.60;;;;;;5108137;27;20157;-43
2021/04/27 09:39:47;;;;;;;1.85;1.70;;;23.50;46.70;;;;;;5130563;27;20030;-43
2021/04/27 09:42:20;;;;;;;3.45;1.60;;;23.50;46.60;;;;;;5130209;27;20058;-37
2021/04/27 09:44:51;;;;;;;1.83;1.60;;;23.60;46.50;;;;;;5130562;27;20022;-42
2021/04/27 09:47:29;;;;;;;2.95;1.55;;;23.60;46.60;;;;;;5131445;27;20910;-42
2021/04/27 09:49:59;;;;;;;3.22;1.23;;;23.60;46.50;;;;;;5112940;27;20027;-42
2021/04/27 09:52:25;;;;;;;1.73;1.60;;;23.60;46.60;;;;;;5132509;27;20039;-42
2021/04/27 09:55:10;;;;;;;2.95;1.60;;;23.60;46.60;;;;;;5114899;27;20115;-43
2021/04/27 09:57:41;;;;;;;1.67;1.27;;;23.60;46.60;;;;;;5134576;27;20151;-45
2021/04/27 10:00:39;;;;;;;1.50;1.40;;;23.70;46.50;;;;;;5132519;27;20179;-45
2021/04/27 10:03:06;;;;;;;1.60;1.50;;;23.70;46.50;;;;;;5071565;28;20043;-45
2021/04/27 10:05:33;;;;;;;1.75;1.50;;;23.80;46.40;;;;;;5069959;28;20031;-43
2021/04/27 10:07:59;;;;;;;1.65;1.55;;;23.70;46.30;;;;;;5070946;28;20089;-44
2021/04/27 10:10:35;;;;;;;1.70;1.60;;;23.80;46.10;;;;;;5051985;28;20040;-41
2021/04/27 10:13:01;;;;;;;1.52;1.42;;;23.80;46.20;;;;;;5037278;28;21295;-46
2021/04/27 10:15:28;;;;;;;2.30;2.10;;;23.70;46.20;;;;;;5070286;28;20049;-42
2021/04/27 10:18:01;;;;;;;1.90;1.70;;;23.70;46.00;;;;;;5053466;28;20085;-44
2021/04/27 10:20:26;;;;;;;1.67;1.57;;;23.80;45.90;;;;;;5035443;28;20186;-42
2021/04/27 10:22:52;;;;;;;3.38;2.00;;;23.90;45.90;;;;;;5069632;28;20036;-42
2021/04/27 10:25:26;;;;;;;2.92;2.08;;;23.90;46.10;;;;;;5036004;28;20460;-41
2021/04/27 10:27:55;;;;;;;2.13;1.98;;;23.90;46.50;;;;;;5071318;28;20077;-43
2021/04/27 10:30:22;;;;;;;3.90;2.60;;;23.90;46.20;;;;;;5070231;28;20046;-43
2021/04/27 10:33:02;;;;;;;3.60;2.45;;;23.90;46.00;;;;;;5070719;28;20044;-40
2021/04/27 10:35:34;;;;;;;4.50;3.10;;;23.90;45.70;;;;;;5070320;28;20047;-39
2021/04/27 10:38:03;;;;;;;3.47;3.15;;;24.00;45.40;;;;;;5083069;27;20049;-45
2021/04/27 10:40:52;;;;;;;3.28;2.78;;;23.90;45.50;;;;;;5135922;27;20022;-41
2021/04/27 10:43:27;;;;;;;3.05;2.75;;;23.90;46.00;;;;;;5135378;27;20035;-45
2021/04/27 10:46:03;;;;;;;3.83;3.20;;;23.90;46.00;;;;;;5136533;27;20031;-43
2021/04/27 10:48:31;;;;;;;3.75;3.17;;;24.00;46.00;;;;;;5132717;27;20035;-40
2021/04/27 10:50:59;;;;;;;4.15;3.03;;;24.00;46.10;;;;;;5132079;27;20491;-38
2021/04/27 10:53:36;;;;;;;3.40;3.10;;;24.00;46.30;;;;;;5134700;27;20031;-43
2021/04/27 10:56:04;;;;;;;6.57;2.92;;;24.00;46.40;;;;;;5135753;27;20043;-43
2021/04/27 10:58:46;;;;;;;5.80;3.30;;;24.00;46.50;;;;;;5134651;27;20023;-41
2021/04/27 11:01:28;;;;;;;4.28;2.78;;;24.00;46.50;;;;;;5135461;27;20030;-41
2021/04/27 11:03:54;;;;;;;3.60;3.30;;;24.00;46.40;;;;;;5137453;27;20041;-40
2021/04/27 11:06:20;;;;;;;2.90;2.60;;;24.00;46.50;;;;;;5129295;27;20045;-42
2021/04/27 11:08:57;;;;;;;4.55;3.20;;;24.10;47.10;;;;;;5129830;27;20031;-40
2021/04/27 11:11:30;;;;;;;3.50;3.20;;;24.10;46.80;;;;;;5132277;27;20026;-40
2021/04/27 11:14:19;;;;;;;3.40;3.15;;;24.10;46.60;;;;;;5132961;27;20377;-41
2021/04/27 11:16:52;;;;;;;3.17;2.75;;;24.10;46.50;;;;;;5131798;27;20690;-42
2021/04/27 11:19:17;;;;;;;4.53;3.20;;;24.20;46.30;;;;;;5130707;27;20065;-43
2021/04/27 11:21:43;;;;;;;4.63;3.05;;;24.00;46.10;;;;;;5132633;27;20121;-42
2021/04/27 11:24:10;;;;;;;9.02;4.25;;;24.00;46.20;;;;;;5110751;27;20054;-43
2021/04/27 11:26:36;;;;;;;4.75;4.03;;;23.90;43.60;;;;;;5097511;27;20092;-40
2021/04/27 11:29:19;;;;;;;6.30;4.55;;;23.80;44.10;;;;;;5130608;27;20035;-45
2021/04/27 11:32:02;;;;;;;5.60;5.05;;;23.70;43.60;;;;;;5130018;27;20026;-44
2021/04/27 11:34:29;;;;;;;5.85;5.35;;;23.70;40.30;;;;;;5132340;27;20575;-44
2021/04/27 11:36:56;;;;;;;4.90;4.50;;;23.70;40.40;;;;;;5131257;27;20063;-42
2021/04/27 11:39:23;;;;;;;5.68;5.18;;;23.80;37.90;;;;;;5131656;27;20492;-47
2021/04/27 11:41:57;;;;;;;5.85;5.05;;;23.70;36.20;;;;;;5133286;27;20944;-43
2021/04/27 11:44:36;;;;;;;5.93;5.40;;;23.60;36.50;;;;;;5132488;27;20043;-43
2021/04/27 11:47:04;;;;;;;5.30;4.85;;;23.60;38.00;;;;;;5133154;27;20031;-41
2021/04/27 11:49:48;;;;;;;5.90;5.30;;;23.60;37.40;;;;;;5134331;27;20138;-49
2021/04/27 11:52:14;;;;;;;6.05;5.03;;;23.60;36.90;;;;;;5133848;27;20512;-50
2021/04/27 11:54:40;;;;;;;9.77;6.55;;;23.60;35.10;;;;;;5134981;27;20026;-43
2021/04/27 11:57:18;;;;;;;19.92;7.82;;;23.60;35.30;;;;;;5112037;27;20042;-47
2021/04/27 11:59:43;;;;;;;21.15;8.50;;;23.60;34.90;;;;;;5131516;27;20039;-44
2021/04/27 12:02:13;;;;;;;21.75;8.82;;;23.70;35.70;;;;;;5114101;27;20078;-47
2021/04/27 12:04:38;;;;;;;19.52;9.30;;;23.70;35.20;;;;;;5132799;27;20034;-47
2021/04/27 12:07:04;;;;;;;19.45;8.10;;;23.50;36.30;;;;;;5114953;27;20800;-44
2021/04/27 12:09:49;;;;;;;17.77;8.20;;;23.50;36.60;;;;;;5114142;28;20031;-46
2021/04/27 12:12:18;;;;;;;15.73;8.02;;;23.60;36.50;;;;;;5115217;27;20099;-50
2021/04/27 12:14:57;;;;;;;17.77;7.50;;;23.60;35.50;;;;;;5127987;27;20121;-46
2021/04/27 12:17:31;;;;;;;12.77;6.93;;;23.60;35.90;;;;;;5126750;27;20035;-48
2021/04/27 12:20:13;;;;;;;11.85;7.03;;;23.60;35.80;;;;;;5131044;27;20027;-49
2021/04/27 12:22:46;;;;;;;11.32;7.03;;;23.50;36.00;;;;;;5124296;27;20031;-45
2021/04/27 12:25:19;;;;;;;10.97;6.07;;;23.60;35.50;;;;;;5129175;27;20035;-44
2021/04/27 12:27:45;;;;;;;8.85;6.57;;;23.70;35.30;;;;;;5126750;27;21941;-41
2021/04/27 12:30:13;;;;;;;8.00;6.20;;;23.70;35.10;;;;;;5099243;27;20026;-43
2021/04/27 12:32:41;;;;;;;9.15;6.15;;;23.60;35.50;;;;;;5115126;27;20500;-43
2021/04/27 12:35:26;;;;;;;6.10;5.38;;;23.70;35.30;;;;;;5118103;27;20038;-44
2021/04/27 12:38:06;;;;;;;6.80;6.13;;;23.60;34.80;;;;;;5116819;27;20041;-44
2021/04/27 12:40:36;;;;;;;7.03;5.70;;;23.60;35.20;;;;;;5137516;27;20056;-45
2021/04/27 12:43:09;;;;;;;12.82;5.78;;;23.60;35.10;;;;;;5137235;27;20030;-44
2021/04/27 12:45:56;;;;;;;5.28;4.88;;;23.60;37.10;;;;;;5138338;27;20030;-43
2021/04/27 12:48:22;;;;;;;6.28;5.63;;;23.70;35.40;;;;;;5131646;27;20027;-44
2021/04/27 12:50:49;;;;;;;5.93;5.43;;;23.70;35.00;;;;;;5136296;27;20708;-43